Time;durP1;ratioP1;P1;durP2;ratioP2;P2;SDS_P1;SDS_P2;PMS_P1;PMS_P2;Temp;Humidity;BMP_temperature;BMP_pressure;BME280_temperature;BME280_humidity;BME280_pressure;Samples;Min_cycle;Max_cycle;Signal;HPM_P1;HPM_P2
2022/12/01 00:01:53;;;;;;;;;;;7.50;98.80;;;;;;5096677;28;20003;-78
2022/12/01 00:04:19;;;;;;;;;;;7.50;98.80;;;;;;5100828;28;19991;-78
2022/12/01 00:06:46;;;;;;;;;;;7.50;98.80;;;;;;5098438;28;19975;-78
2022/12/01 00:11:58;;;;;;;;;;;7.50;98.80;;;;;;5095639;28;20002;-78
2022/12/01 00:14:25;;;;;;;;;;;7.50;98.80;;;;;;5096173;28;20426;-78
2022/12/01 00:16:51;;;;;;;;;;;7.50;98.80;;;;;;5098535;28;20448;-78
2022/12/01 00:19:18;;;;;;;;;;;7.40;98.80;;;;;;5098179;28;19981;-78
2022/12/01 00:21:45;;;;;;;;;;;7.50;98.80;;;;;;5100748;28;19991;-78
2022/12/01 00:24:11;;;;;;;;;;;7.40;98.80;;;;;;5097009;28;19982;-78
2022/12/01 00:26:39;;;;;;;;;;;7.40;98.70;;;;;;5096491;28;19979;-79
2022/12/01 00:29:06;;;;;;;;;;;7.40;98.70;;;;;;5100811;28;20564;-78
2022/12/01 00:31:34;;;;;;;;;;;7.40;98.80;;;;;;5100931;28;19994;-78
2022/12/01 00:34:01;;;;;;;;;;;7.40;98.80;;;;;;5101944;28;20041;-77
2022/12/01 00:36:27;;;;;;;;;;;7.40;98.80;;;;;;5103839;27;20440;-78
2022/12/01 00:38:55;;;;;;;;;;;7.40;98.70;;;;;;5103972;28;20648;-78
2022/12/01 00:41:22;;;;;;;;;;;7.40;98.70;;;;;;5095473;28;20000;-78
2022/12/01 00:43:50;;;;;;;;;;;7.30;98.70;;;;;;5098777;27;19991;-77
2022/12/01 00:46:17;;;;;;;;;;;7.30;98.70;;;;;;5105466;27;19995;-77
2022/12/01 00:48:43;;;;;;;;;;;7.30;98.70;;;;;;5105394;27;19971;-77
2022/12/01 00:51:10;;;;;;;;;;;7.30;98.80;;;;;;5108627;27;19979;-78
2022/12/01 00:53:36;;;;;;;;;;;7.30;98.80;;;;;;5100136;28;19991;-78
2022/12/01 00:56:03;;;;;;;;;;;7.30;98.80;;;;;;5099773;28;19986;-78
2022/12/01 00:58:30;;;;;;;;;;;7.30;98.80;;;;;;5101944;27;19975;-77
2022/12/01 01:00:58;;;;;;;;;;;7.30;98.80;;;;;;5102157;28;19999;-78
2022/12/01 01:03:25;;;;;;;;;;;7.30;98.80;;;;;;5097442;28;20052;-78
2022/12/01 01:05:52;;;;;;;;;;;7.30;98.80;;;;;;5097194;28;20292;-77
2022/12/01 01:08:18;;;;;;;;;;;7.20;98.70;;;;;;5101359;28;19979;-77
2022/12/01 01:10:46;;;;;;;;;;;7.20;98.70;;;;;;5099646;28;20150;-77
2022/12/01 01:13:13;;;;;;;;;;;7.30;98.80;;;;;;5100143;28;20631;-78
2022/12/01 01:15:40;;;;;;;;;;;7.20;98.70;;;;;;5100062;28;20504;-78
2022/12/01 01:18:08;;;;;;;;;;;7.30;98.80;;;;;;5098332;28;19975;-77
2022/12/01 01:20:35;;;;;;;;;;;7.20;98.70;;;;;;5096666;28;20027;-78
2022/12/01 01:23:01;;;;;;;;;;;7.20;98.70;;;;;;5096366;28;20020;-78
2022/12/01 01:25:28;;;;;;;;;;;7.20;98.70;;;;;;5101315;28;19979;-77
2022/12/01 01:27:54;;;;;;;;;;;7.20;98.70;;;;;;5099467;28;19982;-78
2022/12/01 01:30:21;;;;;;;;;;;7.20;98.80;;;;;;5097735;28;19974;-77
2022/12/01 01:32:48;;;;;;;;;;;7.20;98.80;;;;;;5101421;28;19991;-78
2022/12/01 01:35:16;;;;;;;;;;;7.20;98.70;;;;;;5102793;27;20738;-78
2022/12/01 01:37:42;;;;;;;;;;;7.20;98.70;;;;;;5099233;28;19986;-78
2022/12/01 01:40:09;;;;;;;;;;;7.10;99.00;;;;;;5101044;28;19997;-78
2022/12/01 01:42:36;;;;;;;;;;;7.10;98.70;;;;;;5102002;27;19991;-78
2022/12/01 01:45:02;;;;;;;;;;;7.10;98.80;;;;;;5096653;28;19975;-78
2022/12/01 01:47:31;;;;;;;;;;;7.10;98.80;;;;;;5100139;27;19991;-78
2022/12/01 01:50:04;;;;;;;;;;;7.10;98.80;;;;;;5095209;28;19975;-77
2022/12/01 01:52:33;;;;;;;;;;;7.10;98.80;;;;;;5098527;28;19995;-78
2022/12/01 01:54:59;;;;;;;;;;;7.10;98.80;;;;;;5101556;27;19975;-78
2022/12/01 01:57:27;;;;;;;;;;;7.00;98.70;;;;;;5104804;28;19979;-78
2022/12/01 01:59:56;;;;;;;;;;;7.10;98.80;;;;;;5106001;28;20434;-78
2022/12/01 02:02:24;;;;;;;;;;;7.10;98.80;;;;;;5101539;28;19999;-78
2022/12/01 02:04:53;;;;;;;;;;;7.00;98.80;;;;;;5100160;28;19978;-78
2022/12/01 02:07:20;;;;;;;;;;;7.00;98.80;;;;;;5095455;28;19993;-77
2022/12/01 02:09:48;;;;;;;;;;;7.00;98.80;;;;;;5104737;28;20025;-78
2022/12/01 02:12:23;;;;;;;;;;;7.00;98.80;;;;;;5104062;28;19995;-78
2022/12/01 02:15:02;;;;;;;;;;;7.00;98.80;;;;;;5099866;28;20445;-78
2022/12/01 02:17:31;;;;;;;;;;;7.00;98.80;;;;;;5095491;28;19991;-78
2022/12/01 02:20:22;;;;;;;;;;;7.00;98.80;;;;;;5098367;28;19975;-77
2022/12/01 02:22:56;;;;;;;;;;;7.00;98.80;;;;;;5099200;28;19991;-77
2022/12/01 02:25:28;;;;;;;;;;;7.00;98.80;;;;;;5092448;28;19982;-78
2022/12/01 02:28:07;;;;;;;;;;;7.00;98.80;;;;;;5095301;28;19979;-77
2022/12/01 02:30:39;;;;;;;;;;;7.00;98.80;;;;;;5082234;28;20713;-78
2022/12/01 02:33:08;;;;;;;;;;;6.90;98.70;;;;;;5080332;28;21175;-77
2022/12/01 02:35:39;;;;;;;;;;;6.90;98.70;;;;;;5071888;28;19983;-78
2022/12/01 02:38:11;;;;;;;;;;;6.90;98.70;;;;;;5075969;28;19979;-78
2022/12/01 02:40:40;;;;;;;;;;;6.90;98.70;;;;;;5074785;28;19991;-78
2022/12/01 02:43:10;;;;;;;;;;;6.90;98.70;;;;;;5074184;28;19991;-78
2022/12/01 02:45:40;;;;;;;;;;;6.90;98.70;;;;;;5068903;28;19996;-78
2022/12/01 02:48:11;;;;;;;;;;;6.90;98.70;;;;;;5079017;28;19980;-78
2022/12/01 02:50:39;;;;;;;;;;;6.90;98.80;;;;;;5080419;28;20339;-78
2022/12/01 02:53:07;;;;;;;;;;;6.90;98.70;;;;;;5072247;28;20463;-78
2022/12/01 02:55:34;;;;;;;;;;;6.90;98.70;;;;;;5072428;28;19976;-78
2022/12/01 02:58:01;;;;;;;;;;;6.90;98.70;;;;;;5075274;28;19975;-78
2022/12/01 03:00:29;;;;;;;;;;;6.80;98.70;;;;;;5074986;28;19999;-77
2022/12/01 03:03:09;;;;;;;;;;;6.80;98.70;;;;;;5077408;28;20002;-78
2022/12/01 03:05:40;;;;;;;;;;;6.80;98.60;;;;;;5081912;28;19985;-78
2022/12/01 03:08:12;;;;;;;;;;;6.80;98.50;;;;;;5079991;28;20435;-78
2022/12/01 03:10:44;;;;;;;;;;;6.80;98.40;;;;;;5078375;28;20014;-78
2022/12/01 03:13:18;;;;;;;;;;;6.70;98.40;;;;;;5081815;28;19991;-77
2022/12/01 03:15:48;;;;;;;;;;;6.80;98.40;;;;;;5077361;28;19995;-78
2022/12/01 03:18:22;;;;;;;;;;;6.80;98.30;;;;;;5077917;28;20058;-78
2022/12/01 03:20:52;;;;;;;;;;;6.80;98.30;;;;;;5082587;28;19990;-78
2022/12/01 03:23:20;;;;;;;;;;;6.70;98.20;;;;;;5079334;28;20002;-78
2022/12/01 03:25:49;;;;;;;;;;;6.70;98.20;;;;;;5083680;28;20130;-78
2022/12/01 03:28:17;;;;;;;;;;;6.70;98.20;;;;;;5084125;28;19991;-78
2022/12/01 03:30:45;;;;;;;;;;;6.70;98.10;;;;;;5098380;28;19994;-78
2022/12/01 03:33:17;;;;;;;;;;;6.70;98.10;;;;;;5098949;28;20031;-78
2022/12/01 03:35:48;;;;;;;;;;;6.70;98.00;;;;;;5096945;28;19975;-78
2022/12/01 03:38:17;;;;;;;;;;;6.70;98.00;;;;;;5094783;28;19975;-78
2022/12/01 03:40:44;;;;;;;;;;;6.70;98.00;;;;;;5100424;28;19995;-78
2022/12/01 03:43:13;;;;;;;;;;;6.60;98.00;;;;;;5096921;28;20090;-78
2022/12/01 03:45:41;;;;;;;;;;;6.70;98.10;;;;;;5101882;28;20002;-78
2022/12/01 03:48:08;;;;;;;;;;;6.60;98.10;;;;;;5098320;28;20325;-77
2022/12/01 03:50:38;;;;;;;;;;;6.60;98.10;;;;;;5102660;28;19982;-78
2022/12/01 03:53:10;;;;;;;;;;;6.60;98.10;;;;;;5099923;28;19990;-78
2022/12/01 03:55:38;;;;;;;;;;;6.60;98.10;;;;;;5093625;28;19982;-78
2022/12/01 03:58:06;;;;;;;;;;;6.60;98.10;;;;;;5097893;28;19982;-78
2022/12/01 04:00:33;;;;;;;;;;;6.60;98.10;;;;;;5094665;28;20613;-78
2022/12/01 04:03:03;;;;;;;;;;;6.60;98.10;;;;;;5105206;27;19991;-78
2022/12/01 04:05:29;;;;;;;;;;;6.50;98.10;;;;;;5103376;28;20061;-78
2022/12/01 04:07:56;;;;;;;;;;;6.60;98.10;;;;;;5101212;28;20566;-78
2022/12/01 04:10:24;;;;;;;;;;;6.60;98.10;;;;;;5104214;28;19978;-78
2022/12/01 04:12:57;;;;;;;;;;;6.50;98.10;;;;;;5100025;28;20537;-79
2022/12/01 04:15:24;;;;;;;;;;;6.50;98.10;;;;;;5101866;28;19993;-78
2022/12/01 04:17:51;;;;;;;;;;;6.50;98.10;;;;;;5097910;27;19982;-78
2022/12/01 04:20:17;;;;;;;;;;;6.50;98.20;;;;;;5100378;27;19985;-78
2022/12/01 04:22:44;;;;;;;;;;;6.50;98.20;;;;;;5099485;28;19994;-78
2022/12/01 04:25:11;;;;;;;;;;;6.50;98.20;;;;;;5102812;28;20306;-78
2022/12/01 04:27:39;;;;;;;;;;;6.50;98.20;;;;;;5101288;28;20847;-78
2022/12/01 04:30:06;;;;;;;;;;;6.50;98.20;;;;;;5101044;28;20348;-77
2022/12/01 04:32:36;;;;;;;;;;;6.50;98.20;;;;;;5103381;28;19991;-78
2022/12/01 04:35:03;;;;;;;;;;;6.50;98.20;;;;;;5103299;28;19979;-78
2022/12/01 04:37:30;;;;;;;;;;;6.50;98.20;;;;;;5100011;28;19975;-78
2022/12/01 04:39:56;;;;;;;;;;;6.50;98.30;;;;;;5106107;28;19978;-78
2022/12/01 04:42:23;;;;;;;;;;;6.40;98.20;;;;;;5102609;28;19999;-78
2022/12/01 04:44:51;;;;;;;;;;;6.50;98.30;;;;;;5103536;28;19979;-78
2022/12/01 04:47:17;;;;;;;;;;;6.40;98.30;;;;;;5096858;28;19990;-78
2022/12/01 04:49:44;;;;;;;;;;;6.40;98.30;;;;;;5103730;28;19983;-78
2022/12/01 04:52:10;;;;;;;;;;;6.40;98.30;;;;;;5103731;28;19995;-78
2022/12/01 04:54:37;;;;;;;;;;;6.40;98.30;;;;;;5105625;28;19979;-79
2022/12/01 04:57:03;;;;;;;;;;;6.40;98.40;;;;;;5099941;28;19978;-78
2022/12/01 04:59:30;;;;;;;;;;;6.40;98.40;;;;;;5100113;28;19982;-78
2022/12/01 05:01:58;;;;;;;;;;;6.40;98.40;;;;;;5100261;27;20006;-78
2022/12/01 05:04:24;;;;;;;;;;;6.40;98.40;;;;;;5101476;28;19975;-78
2022/12/01 05:06:53;;;;;;;;;;;6.40;98.40;;;;;;5096557;28;20005;-78
2022/12/01 05:09:20;;;;;;;;;;;6.40;98.80;;;;;;5101715;28;19975;-78
2022/12/01 05:11:47;;;;;;;;;;;6.30;98.40;;;;;;5099955;28;20006;-78
2022/12/01 05:14:13;;;;;;;;;;;6.40;98.50;;;;;;5093792;28;19979;-78
2022/12/01 05:16:40;;;;;;;;;;;6.40;98.50;;;;;;5094993;28;19991;-77
2022/12/01 05:21:52;;;;;;;;;;;6.30;98.50;;;;;;5094139;28;20563;-77
2022/12/01 05:24:19;;;;;;;;;;;6.30;98.50;;;;;;5096931;28;19990;-78
2022/12/01 05:26:46;;;;;;;;;;;6.30;98.50;;;;;;5089258;28;20449;-78
2022/12/01 05:29:12;;;;;;;;;;;6.30;98.50;;;;;;5090897;28;19983;-78
2022/12/01 05:31:39;;;;;;;;;;;6.30;98.50;;;;;;5094419;28;19990;-78
2022/12/01 05:34:06;;;;;;;;;;;6.30;98.50;;;;;;5098127;28;20022;-78
2022/12/01 05:36:34;;;;;;;;;;;6.30;98.50;;;;;;5095188;28;19982;-78
2022/12/01 05:39:00;;;;;;;;;;;6.30;98.50;;;;;;5092391;28;19979;-78
2022/12/01 05:41:27;;;;;;;;;;;6.30;98.50;;;;;;5097893;28;19991;-78
2022/12/01 05:43:53;;;;;;;;;;;6.30;98.50;;;;;;5095975;28;20027;-77
2022/12/01 05:46:20;;;;;;;;;;;6.20;98.50;;;;;;5093566;28;20250;-77
2022/12/01 05:48:46;;;;;;;;;;;6.30;98.50;;;;;;5096779;28;19986;-78
2022/12/01 05:51:14;;;;;;;;;;;6.30;98.50;;;;;;5099607;28;19978;-78
2022/12/01 05:53:42;;;;;;;;;;;6.20;98.50;;;;;;5094913;28;19998;-77
2022/12/01 05:56:09;;;;;;;;;;;6.20;98.50;;;;;;5095217;28;19979;-77
2022/12/01 05:58:35;;;;;;;;;;;6.20;98.50;;;;;;5095379;28;19982;-77
2022/12/01 06:01:02;;;;;;;;;;;6.20;98.50;;;;;;5095777;28;19990;-78
2022/12/01 06:03:29;;;;;;;;;;;6.20;98.50;;;;;;5097695;28;19995;-78
2022/12/01 06:05:55;;;;;;;;;;;6.20;98.50;;;;;;5095058;28;19985;-77
2022/12/01 06:08:22;;;;;;;;;;;6.20;98.50;;;;;;5104624;28;20422;-78
2022/12/01 06:10:50;;;;;;;;;;;6.20;98.50;;;;;;5103305;28;19979;-78
2022/12/01 06:13:16;;;;;;;;;;;6.20;98.50;;;;;;5096205;28;19979;-78
2022/12/01 06:15:43;;;;;;;;;;;6.20;98.40;;;;;;5090729;28;20463;-77
2022/12/01 06:18:10;;;;;;;;;;;6.10;96.50;;;;;;5099259;28;19983;-77
2022/12/01 06:20:36;;;;;;;;;;;6.10;96.50;;;;;;5098451;28;20007;-78
2022/12/01 06:23:03;;;;;;;;;;;6.10;96.30;;;;;;5093698;28;19999;-77
2022/12/01 06:25:29;;;;;;;;;;;6.10;96.40;;;;;;5096832;28;19981;-77
2022/12/01 06:27:57;;;;;;;;;;;6.00;96.50;;;;;;5105846;28;19978;-77
2022/12/01 06:30:24;;;;;;;;;;;6.00;96.70;;;;;;5101429;28;19975;-78
2022/12/01 06:32:51;;;;;;;;;;;6.10;96.90;;;;;;5098255;28;19991;-78
2022/12/01 06:35:18;;;;;;;;;;;6.10;97.00;;;;;;5101379;28;20086;-77
2022/12/01 06:37:44;;;;;;;;;;;6.10;97.10;;;;;;5095976;28;19986;-77
2022/12/01 06:40:11;;;;;;;;;;;6.10;97.20;;;;;;5098244;28;19981;-77
2022/12/01 06:42:38;;;;;;;;;;;6.10;97.30;;;;;;5091122;28;19994;-77
2022/12/01 06:45:06;;;;;;;;;;;6.10;97.40;;;;;;5095798;28;19975;-77
2022/12/01 06:47:33;;;;;;;;;;;6.10;97.50;;;;;;5095176;28;20001;-77
2022/12/01 06:50:00;;;;;;;;;;;6.00;97.50;;;;;;5096704;28;20588;-77
2022/12/01 06:52:26;;;;;;;;;;;6.10;97.60;;;;;;5091060;28;19997;-77
2022/12/01 06:54:53;;;;;;;;;;;6.00;97.60;;;;;;5097273;28;19989;-77
2022/12/01 06:57:20;;;;;;;;;;;6.10;97.60;;;;;;5097016;28;19982;-77
2022/12/01 06:59:46;;;;;;;;;;;6.00;97.60;;;;;;5098502;28;20006;-77
2022/12/01 07:02:15;;;;;;;;;;;6.10;97.70;;;;;;5102125;28;20300;-77
2022/12/01 07:04:42;;;;;;;;;;;6.00;97.70;;;;;;5099392;28;19975;-78
2022/12/01 07:07:10;;;;;;;;;;;6.00;97.70;;;;;;5099194;28;19974;-77
2022/12/01 07:09:36;;;;;;;;;;;6.00;97.70;;;;;;5101923;28;19974;-77
2022/12/01 07:12:03;;;;;;;;;;;6.00;97.80;;;;;;5105490;28;20018;-77
2022/12/01 07:14:30;;;;;;;;;;;6.00;97.80;;;;;;5101032;28;19986;-77
2022/12/01 07:16:57;;;;;;;;;;;6.00;97.80;;;;;;5101072;28;20047;-77
2022/12/01 07:19:25;;;;;;;;;;;6.00;97.80;;;;;;5097790;28;19975;-77
2022/12/01 07:21:51;;;;;;;;;;;6.00;97.80;;;;;;5102371;28;19999;-78
2022/12/01 07:24:18;;;;;;;;;;;6.00;97.80;;;;;;5103285;28;19982;-78
2022/12/01 07:26:45;;;;;;;;;;;6.00;97.80;;;;;;5103216;28;19981;-77
2022/12/01 07:29:11;;;;;;;;;;;6.00;97.80;;;;;;5103503;28;19986;-77
2022/12/01 07:31:38;;;;;;;;;;;6.00;97.80;;;;;;5102940;28;20827;-77
2022/12/01 07:34:05;;;;;;;;;;;6.00;97.80;;;;;;5092686;28;20222;-78
2022/12/01 07:36:33;;;;;;;;;;;6.00;97.80;;;;;;5101801;28;19979;-77
2022/12/01 07:39:00;;;;;;;;;;;6.00;97.80;;;;;;5107858;28;19975;-78
2022/12/01 07:41:26;;;;;;;;;;;6.00;97.80;;;;;;5103225;28;19975;-78
2022/12/01 07:43:54;;;;;;;;;;;6.00;97.80;;;;;;5101403;28;19983;-78
2022/12/01 07:46:22;;;;;;;;;;;6.00;97.80;;;;;;5097542;28;19991;-78
2022/12/01 07:48:48;;;;;;;;;;;5.90;97.80;;;;;;5098616;28;19975;-78
2022/12/01 07:51:16;;;;;;;;;;;5.90;97.80;;;;;;5096975;28;19975;-77
2022/12/01 07:53:44;;;;;;;;;;;5.90;97.80;;;;;;5101742;28;20002;-78
2022/12/01 07:56:11;;;;;;;;;;;5.90;97.80;;;;;;5096186;28;20485;-78
2022/12/01 07:58:38;;;;;;;;;;;5.90;97.80;;;;;;5103340;28;19974;-78
2022/12/01 08:01:08;;;;;;;;;;;5.90;97.80;;;;;;5099362;28;19995;-78
2022/12/01 08:03:35;;;;;;;;;;;5.90;97.80;;;;;;5099961;28;20003;-77
2022/12/01 08:06:02;;;;;;;;;;;5.90;97.90;;;;;;5099427;27;19982;-78
2022/12/01 08:08:29;;;;;;;;;;;5.90;97.90;;;;;;5094043;28;20658;-78
2022/12/01 08:10:59;;;;;;;;;;;5.90;97.90;;;;;;5098160;28;19983;-77
2022/12/01 08:13:25;;;;;;;;;;;5.90;97.90;;;;;;5096811;28;20014;-77
2022/12/01 08:15:52;;;;;;;;;;;5.90;97.80;;;;;;5104046;28;19994;-78
2022/12/01 08:18:18;;;;;;;;;;;5.90;97.90;;;;;;5102335;28;19989;-77
2022/12/01 08:20:45;;;;;;;;;;;5.90;97.90;;;;;;5103414;28;20435;-78
2022/12/01 08:23:12;;;;;;;;;;;5.90;97.90;;;;;;5099468;28;21222;-77
2022/12/01 08:25:38;;;;;;;;;;;5.90;97.90;;;;;;5100099;28;19982;-78
2022/12/01 08:28:06;;;;;;;;;;;5.90;97.90;;;;;;5100254;28;20003;-78
2022/12/01 08:30:33;;;;;;;;;;;5.90;97.90;;;;;;5105973;28;19995;-79
2022/12/01 08:32:59;;;;;;;;;;;5.90;97.90;;;;;;5103409;28;20347;-79
2022/12/01 08:35:26;;;;;;;;;;;5.90;97.90;;;;;;5106489;28;20005;-79
2022/12/01 08:37:52;;;;;;;;;;;5.90;97.90;;;;;;5103923;28;20079;-79
2022/12/01 08:40:19;;;;;;;;;;;5.90;97.90;;;;;;5107272;28;19975;-79
2022/12/01 08:42:46;;;;;;;;;;;5.90;97.90;;;;;;5103864;28;19998;-79
2022/12/01 08:45:14;;;;;;;;;;;5.80;97.90;;;;;;5096409;28;19986;-79
2022/12/01 08:47:40;;;;;;;;;;;5.90;98.00;;;;;;5107212;28;19986;-78
2022/12/01 08:50:07;;;;;;;;;;;5.90;98.00;;;;;;5104228;28;19975;-78
2022/12/01 08:52:34;;;;;;;;;;;5.90;98.00;;;;;;5101705;28;20540;-79
2022/12/01 08:55:01;;;;;;;;;;;5.80;97.90;;;;;;5100324;28;20334;-77
2022/12/01 08:57:28;;;;;;;;;;;5.80;97.90;;;;;;5105192;28;19982;-79
2022/12/01 08:59:55;;;;;;;;;;;5.80;97.90;;;;;;5097810;28;19986;-78
2022/12/01 09:02:23;;;;;;;;;;;5.90;97.90;;;;;;5111505;27;19998;-78
2022/12/01 09:04:50;;;;;;;;;;;5.80;97.80;;;;;;5111778;27;19981;-78
2022/12/01 09:07:17;;;;;;;;;;;5.90;97.90;;;;;;5105217;28;20482;-79
2022/12/01 09:09:44;;;;;;;;;;;5.80;97.90;;;;;;5111557;27;19981;-78
2022/12/01 09:12:11;;;;;;;;;;;5.90;97.90;;;;;;5105326;27;19991;-78
2022/12/01 09:14:38;;;;;;;;;;;5.80;97.90;;;;;;5100547;27;20634;-78
2022/12/01 09:17:05;;;;;;;;;;;5.80;97.90;;;;;;5107141;28;20044;-78
2022/12/01 09:19:33;;;;;;;;;;;5.90;97.90;;;;;;5107759;27;19974;-79
2022/12/01 09:22:00;;;;;;;;;;;5.80;97.90;;;;;;5106616;27;20030;-79
2022/12/01 09:24:27;;;;;;;;;;;5.80;97.90;;;;;;5104413;27;19974;-78
2022/12/01 09:26:54;;;;;;;;;;;5.80;97.90;;;;;;5107620;27;19982;-79
2022/12/01 09:29:21;;;;;;;;;;;5.80;97.90;;;;;;5110980;27;19986;-79
2022/12/01 09:31:48;;;;;;;;;;;5.80;97.90;;;;;;5105248;28;20016;-79
2022/12/01 09:34:17;;;;;;;;;;;5.80;97.90;;;;;;5101290;27;19974;-79
2022/12/01 09:36:45;;;;;;;;;;;5.80;97.90;;;;;;5101753;28;20010;-78
2022/12/01 09:39:12;;;;;;;;;;;5.80;97.90;;;;;;5106518;27;19975;-78
2022/12/01 09:41:40;;;;;;;;;;;5.80;97.80;;;;;;5104125;28;20681;-79
2022/12/01 09:44:13;;;;;;;;;;;5.80;97.80;;;;;;5107910;27;19998;-79
2022/12/01 09:46:43;;;;;;;;;;;5.80;97.80;;;;;;5102202;27;19991;-78
2022/12/01 09:49:13;;;;;;;;;;;5.80;97.80;;;;;;5105095;27;19982;-78
2022/12/01 09:51:39;;;;;;;;;;;5.80;97.80;;;;;;5099495;28;19974;-78
2022/12/01 09:54:08;;;;;;;;;;;5.80;97.80;;;;;;5097862;27;19974;-78
2022/12/01 09:56:39;;;;;;;;;;;5.80;97.80;;;;;;5102755;28;19993;-78
2022/12/01 09:59:07;;;;;;;;;;;5.80;97.80;;;;;;5099941;28;19986;-78
2022/12/01 10:01:35;;;;;;;;;;;5.80;97.80;;;;;;5098283;27;19990;-79
2022/12/01 10:04:05;;;;;;;;;;;5.80;97.70;;;;;;5097301;27;19990;-78
2022/12/01 10:06:35;;;;;;;;;;;5.80;97.70;;;;;;5102399;27;19975;-78
2022/12/01 10:09:04;;;;;;;;;;;5.80;98.10;;;;;;5099885;27;19974;-78
2022/12/01 10:11:34;;;;;;;;;;;5.80;97.80;;;;;;5104113;27;19994;-78
2022/12/01 10:14:00;;;;;;;;;;;5.80;98.10;;;;;;5096972;28;20094;-78
2022/12/01 10:16:30;;;;;;;;;;;5.80;97.80;;;;;;5101307;28;19998;-79
2022/12/01 10:18:58;;;;;;;;;;;5.80;97.80;;;;;;5098317;28;19987;-79
2022/12/01 10:21:31;;;;;;;;;;;5.80;97.80;;;;;;5095023;27;19979;-79
2022/12/01 10:24:11;;;;;;;;;;;5.80;97.80;;;;;;5099156;28;20006;-79
2022/12/01 10:26:42;;;;;;;;;;;5.80;97.70;;;;;;5096007;28;19974;-79
2022/12/01 10:29:11;;;;;;;;;;;5.90;98.10;;;;;;5096342;28;19985;-79
2022/12/01 10:31:47;;;;;;;;;;;5.80;97.70;;;;;;5100056;27;20012;-79
2022/12/01 10:34:15;;;;;;;;;;;5.90;97.70;;;;;;5097909;28;20454;-79
2022/12/01 10:36:42;;;;;;;;;;;5.80;97.70;;;;;;5096940;27;19981;-79
2022/12/01 10:39:14;;;;;;;;;;;5.80;97.70;;;;;;5104229;27;19989;-78
2022/12/01 10:41:42;;;;;;;;;;;5.90;97.90;;;;;;5105287;28;20342;-78
2022/12/01 10:44:09;;;;;;;;;;;5.90;97.60;;;;;;5101613;27;19991;-78
2022/12/01 10:46:40;;;;;;;;;;;5.80;97.60;;;;;;5092511;28;19995;-79
2022/12/01 10:49:08;;;;;;;;;;;5.80;97.50;;;;;;5091110;28;19975;-78
2022/12/01 10:51:46;;;;;;;;;;;6.00;97.50;;;;;;5094105;28;19982;-78
2022/12/01 10:54:13;;;;;;;;;;;5.90;97.50;;;;;;5099855;28;19985;-78
2022/12/01 10:56:40;;;;;;;;;;;5.90;97.60;;;;;;5108746;28;19981;-78
2022/12/01 10:59:21;;;;;;;;;;;5.90;97.50;;;;;;5097346;28;20443;-78
2022/12/01 11:01:48;;;;;;;;;;;5.90;97.50;;;;;;5102844;28;20005;-79
2022/12/01 11:04:21;;;;;;;;;;;5.90;97.50;;;;;;5098540;28;19993;-79
2022/12/01 11:06:48;;;;;;;;;;;5.90;97.40;;;;;;5100367;28;19975;-78
2022/12/01 11:09:18;;;;;;;;;;;5.90;97.30;;;;;;5099773;28;20453;-78
2022/12/01 11:11:45;;;;;;;;;;;5.90;97.30;;;;;;5105189;27;20006;-79
2022/12/01 11:14:18;;;;;;;;;;;5.90;97.30;;;;;;5105699;27;20721;-78
2022/12/01 11:16:46;;;;;;;;;;;5.90;97.30;;;;;;5103733;28;19994;-78
2022/12/01 11:19:20;;;;;;;;;;;5.90;97.30;;;;;;5105002;28;19975;-79
2022/12/01 11:21:48;;;;;;;;;;;5.90;97.30;;;;;;5107662;27;19986;-79
2022/12/01 11:24:33;;;;;;;;;;;5.90;97.30;;;;;;5098718;28;19998;-79
2022/12/01 11:27:00;;;;;;;;;;;5.90;97.30;;;;;;5103218;27;19975;-79
2022/12/01 11:29:30;;;;;;;;;;;5.90;97.30;;;;;;5106551;28;20047;-79
2022/12/01 11:31:57;;;;;;;;;;;6.00;97.30;;;;;;5106020;27;19999;-79
2022/12/01 11:34:25;;;;;;;;;;;5.90;97.20;;;;;;5107087;28;19974;-79
2022/12/01 11:36:54;;;;;;;;;;;5.90;97.10;;;;;;5107959;27;19982;-78
2022/12/01 11:39:22;;;;;;;;;;;6.00;97.10;;;;;;5103403;28;19982;-78
2022/12/01 11:41:49;;;;;;;;;;;6.00;97.10;;;;;;5099649;27;20072;-79
2022/12/01 11:44:17;;;;;;;;;;;6.00;97.10;;;;;;5099730;28;20001;-78
2022/12/01 11:46:46;;;;;;;;;;;6.00;97.10;;;;;;5107449;27;20040;-79
2022/12/01 11:49:16;;;;;;;;;;;6.00;97.10;;;;;;5103562;27;20085;-78
2022/12/01 11:51:42;;;;;;;;;;;6.00;97.00;;;;;;5103195;27;19975;-79
2022/12/01 11:54:16;;;;;;;;;;;6.00;96.90;;;;;;5102845;27;20519;-79
2022/12/01 11:56:44;;;;;;;;;;;6.00;96.80;;;;;;5107789;27;19973;-79
2022/12/01 11:59:12;;;;;;;;;;;6.00;96.80;;;;;;5103655;28;19975;-78
2022/12/01 12:01:45;;;;;;;;;;;6.00;96.90;;;;;;5097347;27;20014;-79
2022/12/01 12:04:26;;;;;;;;;;;6.00;97.00;;;;;;5101550;27;19990;-79
2022/12/01 12:06:57;;;;;;;;;;;6.00;97.00;;;;;;5105799;27;19982;-79
2022/12/01 12:09:30;;;;;;;;;;;6.00;97.00;;;;;;5104111;27;19971;-79
2022/12/01 12:12:04;;;;;;;;;;;6.00;96.90;;;;;;5107872;28;19999;-78
2022/12/01 12:14:45;;;;;;;;;;;6.00;96.80;;;;;;5101163;28;19989;-80
2022/12/01 12:17:16;;;;;;;;;;;6.00;96.70;;;;;;5109047;28;20037;-78
2022/12/01 12:19:59;;;;;;;;;;;6.00;96.70;;;;;;5106373;28;20451;-78
2022/12/01 12:22:33;;;;;;;;;;;6.00;96.70;;;;;;5102547;28;19991;-78
2022/12/01 12:25:04;;;;;;;;;;;6.10;96.70;;;;;;5106901;28;19981;-78
2022/12/01 12:27:37;;;;;;;;;;;6.10;96.60;;;;;;5097618;28;19998;-79
2022/12/01 12:30:07;;;;;;;;;;;6.10;96.60;;;;;;5106536;28;19986;-79
2022/12/01 12:32:40;;;;;;;;;;;6.10;96.60;;;;;;5094627;28;20002;-79
2022/12/01 12:35:17;;;;;;;;;;;6.10;96.70;;;;;;5101513;28;19986;-79
2022/12/01 12:37:47;;;;;;;;;;;6.10;96.80;;;;;;5098019;27;21565;-79
2022/12/01 12:40:20;;;;;;;;;;;6.10;96.70;;;;;;5105395;27;20488;-79
2022/12/01 12:42:52;;;;;;;;;;;6.10;96.60;;;;;;5100458;28;20097;-79
2022/12/01 12:45:23;;;;;;;;;;;6.10;96.60;;;;;;5107189;27;19974;-78
2022/12/01 12:48:01;;;;;;;;;;;6.10;96.60;;;;;;5094753;27;20501;-79
2022/12/01 12:50:35;;;;;;;;;;;6.10;96.60;;;;;;5100218;27;19986;-80
2022/12/01 12:53:06;;;;;;;;;;;6.10;96.60;;;;;;5102758;28;19990;-78
2022/12/01 12:55:34;;;;;;;;;;;6.10;96.60;;;;;;5095452;28;19982;-79
2022/12/01 12:58:02;;;;;;;;;;;6.20;96.70;;;;;;5104159;27;19975;-78
2022/12/01 13:00:29;;;;;;;;;;;6.20;96.60;;;;;;5106044;27;20008;-78
2022/12/01 13:02:57;;;;;;;;;;;6.20;96.50;;;;;;5105090;27;20466;-79
2022/12/01 13:05:25;;;;;;;;;;;6.10;96.40;;;;;;5103531;27;19981;-79
2022/12/01 13:07:59;;;;;;;;;;;6.10;96.40;;;;;;5101225;28;20996;-79
2022/12/01 13:10:28;;;;;;;;;;;6.10;96.40;;;;;;5104047;27;19975;-79
2022/12/01 13:12:58;;;;;;;;;;;6.20;96.40;;;;;;5105878;27;20002;-78
2022/12/01 13:15:26;;;;;;;;;;;6.20;96.70;;;;;;5100949;28;19986;-79
2022/12/01 13:17:53;;;;;;;;;;;6.20;96.40;;;;;;5110753;27;19974;-79
2022/12/01 13:20:26;;;;;;;;;;;6.20;96.50;;;;;;5104176;27;19975;-79
2022/12/01 13:22:55;;;;;;;;;;;6.20;96.50;;;;;;5108556;27;20104;-78
2022/12/01 13:25:24;;;;;;;;;;;6.20;96.50;;;;;;5116900;27;19987;-78
2022/12/01 13:27:51;;;;;;;;;;;6.20;96.50;;;;;;5119150;27;19982;-78
2022/12/01 13:30:19;;;;;;;;;;;6.20;96.40;;;;;;5115486;28;19994;-78
2022/12/01 13:32:47;;;;;;;;;;;6.20;96.40;;;;;;5113746;27;20377;-79
2022/12/01 13:35:21;;;;;;;;;;;6.20;96.30;;;;;;5099308;28;19974;-78
2022/12/01 13:37:48;;;;;;;;;;;6.20;96.30;;;;;;5102376;27;19974;-80
2022/12/01 13:40:22;;;;;;;;;;;6.20;96.30;;;;;;5102937;28;21562;-78
2022/12/01 13:42:55;;;;;;;;;;;6.20;96.30;;;;;;5098291;28;20002;-79
2022/12/01 13:45:22;;;;;;;;;;;6.20;96.30;;;;;;5103904;28;19997;-78
2022/12/01 13:47:50;;;;;;;;;;;6.20;96.30;;;;;;5101304;28;19979;-79
2022/12/01 13:50:35;;;;;;;;;;;6.20;96.30;;;;;;5100113;28;19979;-79
2022/12/01 13:53:09;;;;;;;;;;;6.20;96.40;;;;;;5102630;28;20082;-79
2022/12/01 13:55:52;;;;;;;;;;;6.20;96.40;;;;;;5107439;28;19981;-78
2022/12/01 13:58:23;;;;;;;;;;;6.20;96.30;;;;;;5108742;28;19971;-79
2022/12/01 14:00:50;;;;;;;;;;;6.20;96.30;;;;;;5107460;27;20006;-79
2022/12/01 14:03:48;;;;;;;;;;;6.30;96.30;;;;;;5103642;27;20017;-79
2022/12/01 14:06:26;;;;;;;;;;;6.20;96.30;;;;;;5017701;28;19983;-79
2022/12/01 14:08:54;;;;;;;;;;;6.20;96.30;;;;;;5088044;28;19989;-79
2022/12/01 14:11:24;;;;;;;;;;;6.20;96.20;;;;;;5109396;27;19979;-79
2022/12/01 14:13:52;;;;;;;;;;;6.20;96.60;;;;;;5105356;28;19991;-79
2022/12/01 14:16:19;;;;;;;;;;;6.20;96.20;;;;;;5090135;27;19998;-79
2022/12/01 14:18:50;;;;;;;;;;;6.30;96.20;;;;;;5096785;28;19979;-78
2022/12/01 14:21:17;;;;;;;;;;;6.20;96.20;;;;;;5105055;28;20038;-79
2022/12/01 14:23:59;;;;;;;;;;;6.20;96.20;;;;;;5097198;28;19998;-79
2022/12/01 14:26:29;;;;;;;;;;;6.20;96.20;;;;;;5101261;28;19974;-79
2022/12/01 14:29:19;;;;;;;;;;;6.30;96.20;;;;;;5100599;28;20004;-78
2022/12/01 14:32:04;;;;;;;;;;;6.30;96.20;;;;;;5102549;28;20356;-79
2022/12/01 14:34:33;;;;;;;;;;;6.20;96.20;;;;;;5096491;28;19974;-78
2022/12/01 14:37:03;;;;;;;;;;;6.30;96.20;;;;;;5098884;28;20086;-79
2022/12/01 14:39:31;;;;;;;;;;;6.30;96.30;;;;;;5100410;28;20001;-78
2022/12/01 14:42:00;;;;;;;;;;;6.30;96.30;;;;;;5097317;28;20002;-79
2022/12/01 14:44:27;;;;;;;;;;;6.20;96.20;;;;;;5098544;28;19991;-79
2022/12/01 14:46:55;;;;;;;;;;;6.20;96.30;;;;;;5100889;28;20046;-79